Time;durP1;ratioP1;P1;durP2;ratioP2;P2;SDS_P1;SDS_P2;PMS_P1;PMS_P2;Temp;Humidity;BMP_temperature;BMP_pressure;BME280_temperature;BME280_humidity;BME280_pressure;Samples;Min_cycle;Max_cycle;Signal;HPM_P1;HPM_P2
2022/11/07 00:00:55;;;;;;;;;;;333.30;2329.60;;;;;;4956177;28;20041;-55
2022/11/07 00:03:21;;;;;;;;;;;333.40;2329.60;;;;;;4955846;29;20045;-56
2022/11/07 00:05:46;;;;;;;;;;;333.30;2329.60;;;;;;4964966;28;19910;-58
2022/11/07 00:08:12;;;;;;;;;;;333.20;2329.60;;;;;;4974374;28;19918;-57
2022/11/07 00:10:37;;;;;;;;;;;333.20;2329.60;;;;;;4975814;28;19917;-59
2022/11/07 00:13:03;;;;;;;;;;;333.20;2329.60;;;;;;4968581;28;19921;-56
2022/11/07 00:15:28;;;;;;;;;;;333.10;2329.60;;;;;;4974222;28;20296;-59
2022/11/07 00:17:54;;;;;;;;;;;333.10;2329.60;;;;;;4974541;28;20267;-58
2022/11/07 00:20:19;;;;;;;;;;;333.20;2329.60;;;;;;4974621;28;20280;-57
2022/11/07 00:22:45;;;;;;;;;;;333.10;2329.60;;;;;;4972930;28;19910;-53
2022/11/07 00:25:10;;;;;;;;;;;333.10;2329.60;;;;;;4972943;28;19910;-57
2022/11/07 00:27:36;;;;;;;;;;;333.20;2329.60;;;;;;4974944;28;19926;-53
2022/11/07 00:30:01;;;;;;;;;;;333.20;2329.60;;;;;;4973295;28;19918;-55
2022/11/07 00:32:27;;;;;;;;;;;333.10;2329.60;;;;;;4973090;28;20008;-58
2022/11/07 00:34:52;;;;;;;;;;;333.10;2329.60;;;;;;4972848;28;19998;-55
2022/11/07 00:37:18;;;;;;;;;;;333.10;2329.60;;;;;;4973272;28;20259;-57
2022/11/07 00:39:43;;;;;;;;;;;333.10;2329.60;;;;;;4973029;28;19910;-53
2022/11/07 00:42:09;;;;;;;;;;;333.10;2329.60;;;;;;4972893;28;19917;-56
2022/11/07 00:44:35;;;;;;;;;;;333.10;2329.60;;;;;;4973184;28;19953;-57
2022/11/07 00:47:00;;;;;;;;;;;333.10;2329.60;;;;;;4973727;28;20366;-59
2022/11/07 00:49:26;;;;;;;;;;;333.10;2329.60;;;;;;4956473;28;19907;-57
2022/11/07 00:51:51;;;;;;;;;;;333.10;2329.60;;;;;;4968881;28;19913;-59
2022/11/07 00:54:17;;;;;;;;;;;333.10;2329.60;;;;;;4973909;28;19906;-56
2022/11/07 00:56:42;;;;;;;;;;;333.10;2329.60;;;;;;4974393;28;19909;-53
2022/11/07 00:59:08;;;;;;;;;;;333.20;2329.60;;;;;;4974197;28;19906;-53
2022/11/07 01:01:33;;;;;;;;;;;333.20;2329.60;;;;;;4966044;28;20028;-53
2022/11/07 01:06:44;;;;;;;;;;;333.10;2329.60;;;;;;4974478;28;19998;-58
2022/11/07 01:09:10;;;;;;;;;;;333.20;2329.60;;;;;;4973689;28;19948;-59
2022/11/07 01:11:36;;;;;;;;;;;333.10;2329.60;;;;;;4973780;28;19913;-60
2022/11/07 01:14:03;;;;;;;;;;;333.10;2329.60;;;;;;4957319;28;19914;-53
2022/11/07 01:16:29;;;;;;;;;;;333.20;2329.60;;;;;;4973336;28;20359;-53
2022/11/07 01:18:54;;;;;;;;;;;333.10;2329.60;;;;;;4966168;28;19918;-53
2022/11/07 01:21:20;;;;;;;;;;;333.10;2329.60;;;;;;4956831;28;19983;-53
2022/11/07 01:23:46;;;;;;;;;;;333.10;2329.60;;;;;;4972789;28;19910;-54
2022/11/07 01:26:12;;;;;;;;;;;333.10;2329.60;;;;;;4972941;28;19933;-59
2022/11/07 01:28:38;;;;;;;;;;;333.10;2329.60;;;;;;4974326;28;19956;-53
2022/11/07 01:31:04;;;;;;;;;;;333.10;2329.60;;;;;;4968360;28;19907;-53
2022/11/07 01:33:30;;;;;;;;;;;333.10;2329.60;;;;;;4970224;28;19965;-53
2022/11/07 01:35:59;;;;;;;;;;;333.10;2329.60;;;;;;4974884;28;19907;-55
2022/11/07 01:38:25;;;;;;;;;;;333.10;2329.60;;;;;;4975298;28;19928;-55
2022/11/07 01:43:44;;;;;;;;;;;333.10;2329.60;;;;;;4974683;28;20005;-57
2022/11/07 01:46:09;;;;;;;;;;;333.10;2329.60;;;;;;4974564;28;20335;-56
2022/11/07 01:48:35;;;;;;;;;;;333.00;2329.60;;;;;;4974584;28;19953;-55
2022/11/07 01:51:00;;;;;;;;;;;333.00;2329.60;;;;;;4973374;28;19910;-54
2022/11/07 01:53:26;;;;;;;;;;;332.90;2329.60;;;;;;4973858;28;19910;-54
2022/11/07 01:55:52;;;;;;;;;;;333.00;2329.60;;;;;;4974084;28;19917;-54
2022/11/07 01:58:17;;;;;;;;;;;333.00;2329.60;;;;;;4974699;28;19941;-56
2022/11/07 02:00:43;;;;;;;;;;;333.00;2329.60;;;;;;4975161;28;20384;-54
2022/11/07 02:03:11;;;;;;;;;;;333.00;2329.60;;;;;;4975897;28;19906;-58
2022/11/07 02:05:42;;;;;;;;;;;333.00;2329.60;;;;;;4975137;28;20260;-55
2022/11/07 02:08:09;;;;;;;;;;;333.00;2329.60;;;;;;4963304;28;19921;-59
2022/11/07 02:10:34;;;;;;;;;;;308.00;2304.00;;;;;;4973446;28;20385;-54
2022/11/07 02:13:01;;;;;;;;;;;333.00;2329.60;;;;;;4974993;28;19910;-58
2022/11/07 02:15:26;;;;;;;;;;;333.00;2329.60;;;;;;4974665;28;20291;-57
2022/11/07 02:17:52;;;;;;;;;;;333.00;2329.60;;;;;;4974979;28;19910;-59
2022/11/07 02:20:18;;;;;;;;;;;333.00;2329.60;;;;;;4974986;28;19913;-57
2022/11/07 02:22:52;;;;;;;;;;;332.90;2329.60;;;;;;4954067;28;19914;-56
2022/11/07 02:25:18;;;;;;;;;;;332.90;2329.60;;;;;;4955388;29;20379;-55
2022/11/07 02:27:45;;;;;;;;;;;332.90;2329.60;;;;;;4963455;28;20347;-56
2022/11/07 02:30:18;;;;;;;;;;;332.90;2329.60;;;;;;4973806;28;19961;-59
2022/11/07 02:32:45;;;;;;;;;;;332.90;2329.60;;;;;;4974055;28;20352;-54
2022/11/07 02:35:29;;;;;;;;;;;332.90;2329.60;;;;;;4974506;28;19954;-54
2022/11/07 02:37:54;;;;;;;;;;;332.90;2329.60;;;;;;4977700;28;19961;-55
2022/11/07 02:40:20;;;;;;;;;;;332.90;2329.60;;;;;;4973425;28;20316;-55
2022/11/07 02:42:45;;;;;;;;;;;332.90;2329.60;;;;;;4977913;28;19933;-57
2022/11/07 02:45:13;;;;;;;;;;;333.00;2329.60;;;;;;4977641;28;19920;-55
2022/11/07 02:47:39;;;;;;;;;;;332.90;2329.60;;;;;;4977408;28;19920;-55
2022/11/07 02:50:09;;;;;;;;;;;333.00;2329.60;;;;;;4977497;28;19906;-56
2022/11/07 02:52:35;;;;;;;;;;;333.00;2329.60;;;;;;4977563;28;19928;-55
2022/11/07 02:55:01;;;;;;;;;;;333.10;2329.60;;;;;;4977214;28;20352;-58
2022/11/07 02:57:26;;;;;;;;;;;333.10;2329.60;;;;;;4977258;28;19933;-56
2022/11/07 02:59:52;;;;;;;;;;;333.10;2329.60;;;;;;4977130;28;19949;-57
2022/11/07 03:02:17;;;;;;;;;;;333.20;2329.60;;;;;;4976684;28;20017;-55
2022/11/07 03:04:43;;;;;;;;;;;333.10;2329.60;;;;;;4977295;28;19906;-54
2022/11/07 03:07:08;;;;;;;;;;;333.00;2329.60;;;;;;4976760;28;19933;-55
2022/11/07 03:09:34;;;;;;;;;;;333.00;2329.60;;;;;;4976830;28;19906;-59
2022/11/07 03:11:59;;;;;;;;;;;333.00;2329.60;;;;;;4977007;28;19913;-59
2022/11/07 03:14:25;;;;;;;;;;;333.00;2329.60;;;;;;4977100;28;19914;-53
2022/11/07 03:16:50;;;;;;;;;;;333.00;2329.60;;;;;;4973571;28;20044;-58
2022/11/07 03:19:16;;;;;;;;;;;333.00;2329.60;;;;;;4980970;28;19910;-52
2022/11/07 03:21:41;;;;;;;;;;;333.00;2329.60;;;;;;4976876;28;19913;-54
2022/11/07 03:24:07;;;;;;;;;;;333.00;2329.60;;;;;;4976760;28;19913;-57
2022/11/07 03:26:32;;;;;;;;;;;332.90;2329.60;;;;;;4976229;28;19921;-57
2022/11/07 03:28:58;;;;;;;;;;;333.00;2329.60;;;;;;4976392;28;19910;-55
2022/11/07 03:31:24;;;;;;;;;;;333.00;2329.60;;;;;;4976421;28;19916;-53
2022/11/07 03:33:49;;;;;;;;;;;333.10;2329.60;;;;;;4976943;28;20256;-58
2022/11/07 03:36:15;;;;;;;;;;;333.10;2329.60;;;;;;4976503;28;19912;-57
2022/11/07 03:38:40;;;;;;;;;;;333.10;2329.60;;;;;;4970054;28;19918;-56
2022/11/07 03:41:06;;;;;;;;;;;333.10;2329.60;;;;;;4976241;28;19920;-53
2022/11/07 03:43:31;;;;;;;;;;;333.00;2329.60;;;;;;4976544;28;19910;-54
2022/11/07 03:45:57;;;;;;;;;;;333.10;2329.60;;;;;;4975715;28;20017;-56
2022/11/07 03:48:22;;;;;;;;;;;333.10;2329.60;;;;;;4976179;28;19922;-58
2022/11/07 03:50:48;;;;;;;;;;;333.10;2329.60;;;;;;4976362;28;19917;-53
2022/11/07 03:53:14;;;;;;;;;;;333.10;2329.60;;;;;;4975642;28;19964;-54
2022/11/07 03:55:41;;;;;;;;;;;333.10;2329.60;;;;;;4972587;28;19981;-57
2022/11/07 03:58:06;;;;;;;;;;;333.10;2329.60;;;;;;4976078;28;19972;-59
2022/11/07 04:00:32;;;;;;;;;;;333.10;2329.60;;;;;;4976474;28;20327;-53
2022/11/07 04:02:57;;;;;;;;;;;333.10;2329.60;;;;;;4975506;28;20351;-60
2022/11/07 04:05:23;;;;;;;;;;;333.10;2329.60;;;;;;4976545;28;20022;-59
2022/11/07 04:07:48;;;;;;;;;;;333.10;2329.60;;;;;;4975992;28;19918;-58
2022/11/07 04:10:14;;;;;;;;;;;333.20;2329.60;;;;;;4976211;28;20012;-59
2022/11/07 04:18:08;;;;;;;;;;;333.20;2329.60;;;;;;4976127;28;19964;-58
2022/11/07 04:20:34;;;;;;;;;;;333.20;2329.60;;;;;;4976685;28;19969;-55
2022/11/07 04:22:59;;;;;;;;;;;333.20;2329.60;;;;;;4976125;28;19914;-56
2022/11/07 04:28:19;;;;;;;;;;;333.10;2329.60;;;;;;4935543;29;19919;-60
2022/11/07 04:30:45;;;;;;;;;;;333.10;2329.60;;;;;;4935017;29;19919;-57
2022/11/07 04:33:10;;;;;;;;;;;333.10;2329.60;;;;;;4935062;29;19911;-59
2022/11/07 04:35:36;;;;;;;;;;;333.10;2329.60;;;;;;4935274;29;20281;-55
2022/11/07 04:38:01;;;;;;;;;;;333.10;2329.60;;;;;;4934898;29;20389;-59
2022/11/07 04:40:27;;;;;;;;;;;333.10;2329.60;;;;;;4935267;29;19913;-56
2022/11/07 04:42:53;;;;;;;;;;;333.10;2329.60;;;;;;4934943;29;19938;-57
2022/11/07 04:45:19;;;;;;;;;;;333.10;2329.60;;;;;;4935264;29;19911;-56
2022/11/07 04:47:45;;;;;;;;;;;333.10;2329.60;;;;;;4935020;29;19948;-60
2022/11/07 04:50:11;;;;;;;;;;;333.10;2329.60;;;;;;4928550;29;20006;-58
2022/11/07 04:52:37;;;;;;;;;;;333.10;2329.60;;;;;;4916367;29;19914;-59
2022/11/07 04:55:02;;;;;;;;;;;333.10;2329.60;;;;;;4918336;29;19915;-59
2022/11/07 04:57:28;;;;;;;;;;;333.10;2329.60;;;;;;4934784;29;19911;-59
2022/11/07 04:59:53;;;;;;;;;;;333.10;2329.60;;;;;;4935171;29;19906;-59
2022/11/07 05:02:21;;;;;;;;;;;333.00;2329.60;;;;;;4935229;29;20018;-52
2022/11/07 05:04:47;;;;;;;;;;;333.00;2329.60;;;;;;4946449;29;19954;-54
2022/11/07 05:07:12;;;;;;;;;;;333.10;2329.60;;;;;;4958821;28;20366;-60
2022/11/07 05:09:38;;;;;;;;;;;333.10;2329.60;;;;;;4975352;28;20012;-55
2022/11/07 05:12:04;;;;;;;;;;;333.20;2329.60;;;;;;4975776;28;19906;-57
2022/11/07 05:14:30;;;;;;;;;;;333.20;2329.60;;;;;;4960780;28;19921;-56
2022/11/07 05:16:55;;;;;;;;;;;333.10;2329.60;;;;;;4975595;28;19906;-56
2022/11/07 05:19:21;;;;;;;;;;;333.10;2329.60;;;;;;4975839;28;19989;-58
2022/11/07 05:21:46;;;;;;;;;;;333.20;2329.60;;;;;;4975064;28;19949;-59
2022/11/07 05:24:12;;;;;;;;;;;332.80;2329.60;;;;;;4974806;28;19913;-59
2022/11/07 05:26:38;;;;;;;;;;;333.30;2329.60;;;;;;4975062;28;19921;-57
2022/11/07 05:29:04;;;;;;;;;;;333.20;2329.60;;;;;;4975117;28;20383;-57
2022/11/07 05:31:29;;;;;;;;;;;333.20;2329.60;;;;;;4963738;28;20008;-59
2022/11/07 05:33:55;;;;;;;;;;;333.20;2329.60;;;;;;4964368;28;19914;-56
2022/11/07 05:36:21;;;;;;;;;;;333.20;2329.60;;;;;;4974690;28;19910;-58
2022/11/07 05:38:48;;;;;;;;;;;333.20;2329.60;;;;;;4974759;28;20009;-60
2022/11/07 05:41:15;;;;;;;;;;;333.20;2329.60;;;;;;4974286;28;19910;-59
2022/11/07 05:43:40;;;;;;;;;;;333.20;2329.60;;;;;;4974915;28;20276;-58
2022/11/07 05:46:06;;;;;;;;;;;333.10;2329.60;;;;;;4974915;28;19921;-59
2022/11/07 05:48:32;;;;;;;;;;;333.10;2329.60;;;;;;4974406;28;20360;-56
2022/11/07 05:50:58;;;;;;;;;;;333.10;2329.60;;;;;;4974568;28;19910;-55
2022/11/07 05:53:24;;;;;;;;;;;333.20;2329.60;;;;;;4973899;28;19916;-54
2022/11/07 05:55:51;;;;;;;;;;;333.30;2329.60;;;;;;4974661;28;19992;-58
2022/11/07 05:58:17;;;;;;;;;;;333.10;2329.60;;;;;;4974417;28;19957;-56
2022/11/07 06:00:42;;;;;;;;;;;333.10;2329.60;;;;;;4974979;28;19914;-57
2022/11/07 06:03:08;;;;;;;;;;;333.20;2329.60;;;;;;4974746;28;20265;-58
2022/11/07 06:05:35;;;;;;;;;;;333.20;2329.60;;;;;;4973880;28;19917;-58
2022/11/07 06:08:01;;;;;;;;;;;333.10;2329.60;;;;;;4972394;28;19918;-59
2022/11/07 06:10:26;;;;;;;;;;;333.10;2329.60;;;;;;4976854;28;19910;-59
2022/11/07 06:12:59;;;;;;;;;;;333.10;2329.60;;;;;;4978338;28;20060;-60
2022/11/07 06:15:25;;;;;;;;;;;333.00;2329.60;;;;;;4977067;28;19918;-56
2022/11/07 06:17:51;;;;;;;;;;;333.10;2329.60;;;;;;4978497;28;19992;-58
2022/11/07 06:20:16;;;;;;;;;;;333.10;2329.60;;;;;;4977156;28;19910;-59
2022/11/07 06:22:42;;;;;;;;;;;333.10;2329.60;;;;;;4978449;28;20363;-55
2022/11/07 06:25:07;;;;;;;;;;;333.10;2329.60;;;;;;4977280;28;19933;-57
2022/11/07 06:27:33;;;;;;;;;;;333.10;2329.60;;;;;;4971224;28;19929;-56
2022/11/07 06:29:58;;;;;;;;;;;333.20;2329.60;;;;;;4977577;28;19917;-55
2022/11/07 06:32:24;;;;;;;;;;;333.30;2329.60;;;;;;4978346;28;20263;-55
2022/11/07 06:34:49;;;;;;;;;;;333.20;2329.60;;;;;;4978409;28;19940;-54
2022/11/07 06:37:15;;;;;;;;;;;333.30;2329.60;;;;;;4979460;28;19941;-56
2022/11/07 06:39:41;;;;;;;;;;;333.30;2329.60;;;;;;4978090;28;19925;-56
2022/11/07 06:42:06;;;;;;;;;;;333.30;2329.60;;;;;;4970814;28;19914;-60
2022/11/07 06:44:32;;;;;;;;;;;333.20;2329.60;;;;;;4971775;28;20316;-53
2022/11/07 06:46:57;;;;;;;;;;;333.20;2329.60;;;;;;4988814;28;19909;-60
2022/11/07 06:49:23;;;;;;;;;;;333.20;2329.60;;;;;;4978413;28;19914;-55
2022/11/07 06:51:48;;;;;;;;;;;333.20;2329.60;;;;;;4966361;28;20032;-54
2022/11/07 06:54:14;;;;;;;;;;;333.20;2329.60;;;;;;4969290;28;20009;-53
2022/11/07 06:56:39;;;;;;;;;;;333.30;2329.60;;;;;;4969252;28;19910;-53
2022/11/07 06:59:05;;;;;;;;;;;333.30;2329.60;;;;;;4978043;28;19913;-53
2022/11/07 10:04:57;;;;;;;77.10;36.93;;;333.30;2329.60;;;;;;5131869;27;20399;-57
2022/11/07 10:07:34;;;;;;;79.07;36.00;;;358.50;2329.60;;;;;;5131765;28;20023;-57
2022/11/07 10:10:27;;;;;;;79.55;35.25;;;358.50;2329.60;;;;;;5131257;28;20031;-57
2022/11/07 10:13:14;;;;;;;78.25;35.42;;;358.40;2329.60;;;;;;5131479;27;20126;-55
2022/11/07 10:16:07;;;;;;;82.78;36.47;;;358.40;2329.60;;;;;;5124476;27;20464;-54
2022/11/07 10:18:45;;;;;;;77.72;35.50;;;358.60;2329.60;;;;;;5124305;28;20027;-55
2022/11/07 10:21:28;;;;;;;79.38;36.05;;;358.70;2329.60;;;;;;5130017;28;20052;-57
2022/11/07 10:24:03;;;;;;;75.93;34.88;;;358.80;2329.60;;;;;;5121157;28;20051;-54
2022/11/07 10:26:30;;;;;;;71.53;33.50;;;359.00;2329.60;;;;;;5130346;28;20380;-57
2022/11/07 10:29:12;;;;;;;70.28;34.28;;;359.10;2329.60;;;;;;5128789;27;20031;-57
2022/11/07 10:31:43;;;;;;;76.25;36.35;;;359.20;2329.60;;;;;;5128429;28;20016;-57
2022/11/07 10:34:14;;;;;;;80.28;36.72;;;359.20;2329.60;;;;;;5128920;27;20034;-55
2022/11/07 10:36:40;;;;;;;81.35;37.90;;;359.30;2329.60;;;;;;5131048;27;20026;-53
2022/11/07 10:39:17;;;;;;;78.80;36.88;;;359.30;2329.60;;;;;;5130621;27;20377;-56
2022/11/07 10:41:49;;;;;;;80.95;37.45;;;359.20;2329.60;;;;;;5131281;27;20024;-54
2022/11/07 10:44:23;;;;;;;81.65;37.05;;;359.30;2329.60;;;;;;5131207;27;20464;-56
2022/11/07 10:46:49;;;;;;;80.53;37.90;;;384.00;2329.60;;;;;;5131018;27;20039;-54
2022/11/07 10:49:25;;;;;;;74.47;34.80;;;384.00;2329.60;;;;;;5131158;27;20024;-53
2022/11/07 10:51:52;;;;;;;72.45;35.33;;;359.30;2329.60;;;;;;5130880;27;20031;-52
2022/11/07 10:54:25;;;;;;;71.78;36.63;;;384.00;2329.60;;;;;;5130721;27;20032;-53
2022/11/07 10:57:04;;;;;;;81.30;39.20;;;384.00;2329.60;;;;;;5131067;27;20041;-52
2022/11/07 10:59:32;;;;;;;82.43;39.05;;;384.10;2329.60;;;;;;5131037;27;20126;-52
2022/11/07 11:01:59;;;;;;;73.00;35.58;;;384.00;2329.60;;;;;;5130702;27;20470;-52
2022/11/07 11:04:28;;;;;;;67.85;33.53;;;384.00;2329.60;;;;;;5124235;27;20512;-55
2022/11/07 11:07:02;;;;;;;70.95;35.72;;;384.10;2329.60;;;;;;5116270;28;20035;-53
2022/11/07 11:09:33;;;;;;;73.28;35.53;;;384.10;2329.60;;;;;;5116479;28;20377;-52
2022/11/07 11:12:26;;;;;;;75.45;36.58;;;384.20;2329.60;;;;;;5098225;28;20464;-53
2022/11/07 11:15:12;;;;;;;80.45;38.92;;;384.20;2329.60;;;;;;5069468;28;20041;-52
2022/11/07 11:17:38;;;;;;;79.93;37.63;;;384.20;2329.60;;;;;;5073924;28;20466;-52
2022/11/07 11:20:07;;;;;;;75.20;37.40;;;384.00;2329.60;;;;;;5074011;28;20092;-53
2022/11/07 11:22:41;;;;;;;73.20;36.92;;;384.10;2329.60;;;;;;5074089;28;20020;-52
2022/11/07 11:25:09;;;;;;;73.40;36.00;;;384.10;2329.60;;;;;;5073848;28;20027;-53
2022/11/07 11:27:36;;;;;;;71.68;35.50;;;384.10;2329.60;;;;;;5064499;28;20029;-55
2022/11/07 11:30:09;;;;;;;76.85;37.10;;;384.00;2329.60;;;;;;5067935;28;20021;-52
2022/11/07 11:33:05;;;;;;;74.55;36.10;;;384.00;2329.60;;;;;;5058871;28;20078;-53
2022/11/07 11:35:33;;;;;;;80.70;38.45;;;384.00;2329.60;;;;;;5073130;28;20035;-52
2022/11/07 11:38:27;;;;;;;72.70;36.83;;;384.00;2329.60;;;;;;5073032;28;20032;-56
2022/11/07 11:41:01;;;;;;;72.45;34.78;;;384.00;2329.60;;;;;;5058618;28;20033;-54
2022/11/07 11:43:56;;;;;;;71.35;35.58;;;384.00;2329.60;;;;;;5067537;28;20055;-51
2022/11/07 11:46:27;;;;;;;74.32;36.70;;;359.20;2329.60;;;;;;4999502;28;20049;-53
2022/11/07 11:49:04;;;;;;;72.90;36.55;;;384.00;2329.60;;;;;;4998754;28;20038;-51
2022/11/07 11:51:36;;;;;;;75.47;38.78;;;384.00;2329.60;;;;;;5018296;28;20037;-52
2022/11/07 11:54:01;;;;;;;80.72;40.20;;;384.00;2329.60;;;;;;5046621;28;20049;-50
2022/11/07 11:56:45;;;;;;;79.50;39.75;;;384.10;2329.60;;;;;;5052115;28;20074;-51
2022/11/07 11:59:42;;;;;;;74.55;37.90;;;384.20;2329.60;;;;;;5047942;28;20418;-53
2022/11/07 12:02:28;;;;;;;70.78;34.58;;;384.20;2329.60;;;;;;5051993;28;20024;-53
2022/11/07 12:05:41;;;;;;;72.63;34.80;;;384.10;2329.60;;;;;;5071431;28;20036;-53
2022/11/07 12:08:44;;;;;;;80.20;38.23;;;384.20;2329.60;;;;;;5072134;28;20032;-53
2022/11/07 12:11:18;;;;;;;71.95;36.75;;;384.00;2329.60;;;;;;5045128;28;20395;-54
2022/11/07 12:14:19;;;;;;;65.22;34.80;;;384.20;2329.60;;;;;;5035451;28;20044;-53
2022/11/07 12:16:58;;;;;;;66.15;34.88;;;;;;;;;;4972785;28;20034;-52
2022/11/07 12:19:38;;;;;;;72.80;37.25;;;;;;;;;;4973324;28;20046;-51
2022/11/07 12:22:04;;;;;;;77.20;41.38;;;;;;;;;;4993211;28;20058;-53
2022/11/07 12:24:40;;;;;;;74.05;39.15;;;384.60;2329.60;;;;;;5068819;28;20068;-55
2022/11/07 12:27:32;;;;;;;74.53;38.72;;;384.40;1996.80;;;;;;5072363;28;20112;-55
2022/11/07 12:30:16;;;;;;;71.80;36.97;;;384.50;2329.60;;;;;;5069589;28;20043;-51
2022/11/07 12:32:44;;;;;;;67.57;35.58;;;384.30;2227.20;;;;;;5059134;28;20480;-51
2022/11/07 12:35:12;;;;;;;68.43;35.47;;;384.30;2329.60;;;;;;5079138;28;20551;-53
2022/11/07 12:38:01;;;;;;;63.90;34.42;;;384.30;2073.60;;;;;;5072279;28;20058;-54
2022/11/07 12:40:57;;;;;;;60.88;33.08;;;384.30;2278.40;;;;;;5069580;28;20041;-55
2022/11/07 12:43:43;;;;;;;61.83;33.00;;;384.30;2124.80;;;;;;5066922;28;20111;-55
2022/11/07 12:46:44;;;;;;;56.83;30.63;;;384.30;2329.60;;;;;;5061764;28;20028;-53
2022/11/07 12:49:42;;;;;;;60.28;31.40;;;384.20;2329.60;;;;;;5063368;28;20462;-57
2022/11/07 12:52:29;;;;;;;63.17;32.05;;;384.20;2304.00;;;;;;5094073;28;20022;-59
2022/11/07 12:55:28;;;;;;;61.58;32.35;;;384.10;2201.60;;;;;;5094012;28;20385;-57
2022/11/07 12:57:55;;;;;;;64.18;33.25;;;384.10;2329.60;;;;;;5112448;28;20036;-54
2022/11/07 13:00:24;;;;;;;64.07;33.40;;;384.10;1996.80;;;;;;5114427;28;20036;-56
2022/11/07 13:03:07;;;;;;;62.17;33.25;;;384.20;2329.60;;;;;;5114068;28;20051;-54
2022/11/07 13:05:51;;;;;;;56.42;31.63;;;384.20;2304.00;;;;;;5112280;28;20150;-54
2022/11/07 13:08:38;;;;;;;78.73;41.87;;;384.20;2329.60;;;;;;5107839;28;20039;-53
2022/11/07 13:11:27;;;;;;;74.45;39.50;;;384.20;2329.60;;;;;;5103187;28;20469;-57
2022/11/07 13:13:59;;;;;;;68.75;37.22;;;384.20;2329.60;;;;;;5113971;28;20043;-56
2022/11/07 13:16:35;;;;;;;87.32;47.22;;;384.30;2329.60;;;;;;5112535;28;20526;-56
2022/11/07 13:19:29;;;;;;;61.13;32.03;;;384.40;2329.60;;;;;;5112041;28;20675;-55
2022/11/07 13:22:04;;;;;;;54.28;29.10;;;384.30;2329.60;;;;;;5111152;28;20026;-56
2022/11/07 13:24:31;;;;;;;56.65;30.88;;;384.40;2329.60;;;;;;5113199;28;20062;-55
2022/11/07 13:26:57;;;;;;;55.70;30.08;;;384.50;2329.60;;;;;;5113408;28;20048;-55
2022/11/07 13:29:36;;;;;;;59.05;34.13;;;384.60;2329.60;;;;;;5113961;28;20032;-53
2022/11/07 13:32:10;;;;;;;57.65;30.42;;;384.60;2329.60;;;;;;5111891;28;20098;-54
2022/11/07 13:34:50;;;;;;;60.05;31.75;;;384.70;2329.60;;;;;;5113465;28;20040;-55
2022/11/07 13:37:23;;;;;;;75.80;37.47;;;384.60;2329.60;;;;;;5113515;28;20055;-56
2022/11/07 13:39:54;;;;;;;64.22;33.83;;;384.60;2329.60;;;;;;5112835;28;20089;-55
2022/11/07 13:42:24;;;;;;;71.28;38.13;;;384.70;2329.60;;;;;;5113805;28;20026;-50
2022/11/07 13:44:54;;;;;;;64.97;35.78;;;384.60;2329.60;;;;;;5113760;28;20027;-51
2022/11/07 13:47:40;;;;;;;66.45;37.47;;;384.60;2329.60;;;;;;5102043;28;20034;-54
2022/11/07 13:50:15;;;;;;;;;;;409.70;2355.20;;;;;;5089911;28;20032;-52
2022/11/07 13:52:44;;;;;;;;;;;409.70;2355.20;;;;;;5090057;28;20291;-52
2022/11/07 13:55:15;;;;;;;;;;;384.90;2329.60;;;;;;5099349;28;20341;-55
2022/11/07 13:57:42;;;;;;;;;;;384.80;2329.60;;;;;;5111570;28;19910;-55
2022/11/07 14:00:13;;;;;;;;;;;384.80;2329.60;;;;;;5108212;28;19922;-53
2022/11/07 14:03:11;;;;;;;;;;;384.60;2329.60;;;;;;5111611;28;19999;-53
2022/11/07 14:05:37;;;;;;;;;;;384.60;2329.60;;;;;;5043157;28;19952;-53
2022/11/07 14:08:04;;;;;;;;;;;384.40;2329.60;;;;;;5044748;28;19909;-55
2022/11/07 14:10:38;;;;;;;;;;;384.30;2329.60;;;;;;5050505;28;19912;-57
2022/11/07 14:13:24;;;;;;;;;;;384.30;2329.60;;;;;;5050308;28;20003;-56
2022/11/07 14:15:53;;;;;;;;;;;384.40;2329.60;;;;;;5044283;28;19913;-52
2022/11/07 14:18:19;;;;;;;;;;;384.40;2048.00;;;;;;5049399;28;19963;-56
2022/11/07 14:20:52;;;;;;;;;;;384.30;2329.60;;;;;;5043589;28;20382;-55
2022/11/07 14:23:22;;;;;;;;;;;384.30;2329.60;;;;;;5041580;28;19905;-54
2022/11/07 14:25:55;;;;;;;;;;;384.30;2201.60;;;;;;5050849;28;19931;-52
2022/11/07 14:28:21;;;;;;;;;;;384.20;2329.60;;;;;;5050515;28;19934;-53
2022/11/07 14:30:48;;;;;;;;;;;384.20;2329.60;;;;;;5038054;28;19912;-54
2022/11/07 14:33:16;;;;;;;;;;;384.20;2329.60;;;;;;5045396;28;19996;-53
2022/11/07 14:35:43;;;;;;;;;;;384.20;2329.60;;;;;;5049149;28;19939;-52
2022/11/07 14:38:10;;;;;;;;;;;384.20;2329.60;;;;;;5044321;28;19943;-53
2022/11/07 14:40:36;;;;;;;;;;;384.10;2329.60;;;;;;5066814;28;19934;-56
2022/11/07 14:43:02;;;;;;;;;;;384.00;2329.60;;;;;;5106984;28;20002;-54
2022/11/07 14:45:29;;;;;;;;;;;384.00;2329.60;;;;;;5115238;28;19996;-51
2022/11/07 14:47:54;;;;;;;;;;;359.30;2329.60;;;;;;5117133;28;19905;-57
2022/11/07 14:50:26;;;;;;;;;;;359.30;2329.60;;;;;;5116627;27;20040;-56
2022/11/07 14:52:52;;;;;;;;;;;359.10;2329.60;;;;;;5116300;28;19915;-51
2022/11/07 14:55:29;;;;;;;;;;;359.10;2329.60;;;;;;5116994;28;19914;-55
2022/11/07 14:57:56;;;;;;;;;;;359.20;2329.60;;;;;;5116874;28;19915;-51
2022/11/07 15:00:22;;;;;;;;;;;359.10;2329.60;;;;;;5115868;27;19914;-50
2022/11/07 15:02:49;;;;;;;;;;;359.10;2329.60;;;;;;5115928;28;19908;-52
2022/11/07 15:05:28;;;;;;;;;;;359.10;2329.60;;;;;;5114978;28;19911;-50
2022/11/07 15:07:57;;;;;;;;;;;359.10;2329.60;;;;;;5112098;28;19947;-51
2022/11/07 15:10:22;;;;;;;;;;;359.20;2329.60;;;;;;5109743;28;19913;-53
2022/11/07 15:12:49;;;;;;;;;;;359.10;2329.60;;;;;;5116642;28;19911;-54
2022/11/07 15:15:22;;;;;;;;;;;359.10;2329.60;;;;;;5116155;28;19988;-50
2022/11/07 15:17:49;;;;;;;;;;;359.10;2329.60;;;;;;5131438;27;20345;-50
2022/11/07 15:20:17;;;;;;;;;;;359.10;2329.60;;;;;;5121616;27;20002;-50
2022/11/07 15:22:43;;;;;;;;;;;359.10;2329.60;;;;;;5115377;28;20341;-52
2022/11/07 15:25:43;;;;;;;;;;;359.10;2329.60;;;;;;5102471;28;19941;-50
2022/11/07 15:28:18;;;;;;;;;;;359.10;2329.60;;;;;;5035048;28;19956;-54
2022/11/07 15:30:44;;;;;;;;;;;359.10;2329.60;;;;;;5041240;28;19963;-56
2022/11/07 15:33:12;;;;;;;;;;;359.00;2329.60;;;;;;5048944;28;19916;-55
2022/11/07 15:35:38;;;;;;;;;;;358.90;2329.60;;;;;;5039694;28;20325;-58
2022/11/07 15:38:03;;;;;;;;;;;358.90;2329.60;;;;;;5047717;28;19912;-56
2022/11/07 15:40:29;;;;;;;;;;;358.90;2329.60;;;;;;5034938;28;19920;-56
2022/11/07 15:42:55;;;;;;;;;;;358.90;2329.60;;;;;;5044188;28;19974;-57
2022/11/07 15:45:20;;;;;;;;;;;358.90;2329.60;;;;;;5053390;28;20362;-56
2022/11/07 15:47:46;;;;;;;;;;;358.80;2329.60;;;;;;5053052;28;20452;-58
2022/11/07 15:50:19;;;;;;;;;;;358.70;2329.60;;;;;;5053026;28;19904;-56
2022/11/07 15:52:45;;;;;;;;;;;358.80;2329.60;;;;;;5036623;28;19908;-57
2022/11/07 15:55:12;;;;;;;;;;;358.80;2329.60;;;;;;5036108;28;19913;-54
2022/11/07 15:57:37;;;;;;;;;;;358.80;2329.60;;;;;;5052852;28;19927;-55
2022/11/07 16:00:03;;;;;;;;;;;358.80;2329.60;;;;;;5053108;28;20550;-58
2022/11/07 16:02:29;;;;;;;;;;;358.70;2329.60;;;;;;5050488;28;19940;-56
2022/11/07 16:04:54;;;;;;;;;;;358.70;2329.60;;;;;;5104813;28;19916;-54
2022/11/07 16:07:20;;;;;;;;;;;358.70;2329.60;;;;;;5114595;28;19919;-55
2022/11/07 16:09:47;;;;;;;;;;;358.70;2329.60;;;;;;5114821;28;19908;-55
2022/11/07 16:12:16;;;;;;;;;;;358.70;2329.60;;;;;;5112890;28;19908;-54
2022/11/07 16:14:42;;;;;;;;;;;358.60;2329.60;;;;;;5110216;28;19946;-55
2022/11/07 16:17:10;;;;;;;;;;;358.60;2329.60;;;;;;5104220;28;20356;-54
2022/11/07 16:19:36;;;;;;;;;;;358.60;2329.60;;;;;;5115717;27;19915;-55
2022/11/07 16:22:01;;;;;;;;;;;358.70;2329.60;;;;;;5115332;28;19910;-56
2022/11/07 16:24:27;;;;;;;;;;;358.60;2329.60;;;;;;5115282;27;19903;-55
2022/11/07 16:26:52;;;;;;;;;;;358.50;2329.60;;;;;;5114184;28;19911;-55
2022/11/07 16:29:18;;;;;;;;;;;358.50;2329.60;;;;;;5115202;28;19969;-54
2022/11/07 16:31:43;;;;;;;;;;;358.60;2329.60;;;;;;5109105;28;19906;-55
2022/11/07 16:34:10;;;;;;;;;;;358.70;2329.60;;;;;;5100006;28;19994;-55
2022/11/07 16:36:35;;;;;;;;;;;358.70;2329.60;;;;;;5109998;28;19986;-55
2022/11/07 16:39:04;;;;;;;;;;;358.70;2329.60;;;;;;5114642;28;20343;-55
2022/11/07 16:41:30;;;;;;;;;;;358.70;2329.60;;;;;;5111263;27;19915;-56
2022/11/07 16:43:55;;;;;;;;;;;358.70;2329.60;;;;;;5108651;28;19908;-57